sensor_id;sensor_type;location;lat;lon;timestamp;pressure;altitude;pressure_sealevel;temperature;humidity
29359;BME280;16347;53.232;6.556;2023-02-11T00:01:05;103143.84;;;8.22;71.66
29359;BME280;16347;53.232;6.556;2023-02-11T00:03:33;103144.81;;;8.37;71.43
29359;BME280;16347;53.232;6.556;2023-02-11T00:06:03;103134.09;;;8.35;71.37
29359;BME280;16347;53.232;6.556;2023-02-11T00:08:34;103115.59;;;8.26;72.01
29359;BME280;16347;53.232;6.556;2023-02-11T00:11:02;103102.03;;;8.26;72.17
29359;BME280;16347;53.232;6.556;2023-02-11T00:13:30;103130.91;;;8.27;72.28
29359;BME280;16347;53.232;6.556;2023-02-11T00:15:58;103114.63;;;8.27;72.36
29359;BME280;16347;53.232;6.556;2023-02-11T00:18:26;103110.06;;;8.29;72.42
29359;BME280;16347;53.232;6.556;2023-02-11T00:20:54;103119.84;;;8.32;72.29
29359;BME280;16347;53.232;6.556;2023-02-11T00:23:22;103118.22;;;8.27;72.79
29359;BME280;16347;53.232;6.556;2023-02-11T00:25:52;103119.53;;;8.20;72.67
29359;BME280;16347;53.232;6.556;2023-02-11T00:28:20;103120.06;;;8.27;73.13
29359;BME280;16347;53.232;6.556;2023-02-11T00:30:53;103134.59;;;8.42;72.99
29359;BME280;16347;53.232;6.556;2023-02-11T00:33:21;103127.41;;;8.25;73.25
29359;BME280;16347;53.232;6.556;2023-02-11T00:35:49;103133.97;;;8.21;73.23
29359;BME280;16347;53.232;6.556;2023-02-11T00:38:18;103118.22;;;8.27;73.28
29359;BME280;16347;53.232;6.556;2023-02-11T00:40:47;103109.19;;;8.29;73.37
29359;BME280;16347;53.232;6.556;2023-02-11T00:43:16;103117.00;;;8.33;73.16
29359;BME280;16347;53.232;6.556;2023-02-11T00:45:45;103103.47;;;8.33;73.45
29359;BME280;16347;53.232;6.556;2023-02-11T00:48:13;103105.66;;;8.11;74.21
29359;BME280;16347;53.232;6.556;2023-02-11T00:50:41;103114.47;;;8.14;74.29
29359;BME280;16347;53.232;6.556;2023-02-11T00:53:09;103113.72;;;8.28;74.15
29359;BME280;16347;53.232;6.556;2023-02-11T00:55:37;103114.41;;;8.32;73.45
29359;BME280;16347;53.232;6.556;2023-02-11T00:58:06;103109.00;;;8.32;74.09
29359;BME280;16347;53.232;6.556;2023-02-11T01:00:35;103120.44;;;8.37;73.88
29359;BME280;16347;53.232;6.556;2023-02-11T01:03:05;103127.31;;;8.26;74.06
29359;BME280;16347;53.232;6.556;2023-02-11T01:05:33;103127.50;;;8.08;75.04
29359;BME280;16347;53.232;6.556;2023-02-11T01:08:01;103146.28;;;8.26;74.51
29359;BME280;16347;53.232;6.556;2023-02-11T01:10:30;103142.19;;;8.51;73.85
29359;BME280;16347;53.232;6.556;2023-02-11T01:12:58;103135.19;;;8.47;73.45
29359;BME280;16347;53.232;6.556;2023-02-11T01:15:27;103140.97;;;8.41;73.96
29359;BME280;16347;53.232;6.556;2023-02-11T01:17:57;103131.97;;;8.40;74.23
29359;BME280;16347;53.232;6.556;2023-02-11T01:20:26;103131.06;;;8.24;74.41
29359;BME280;16347;53.232;6.556;2023-02-11T01:22:55;103129.13;;;8.26;74.58
29359;BME280;16347;53.232;6.556;2023-02-11T01:25:24;103120.44;;;8.37;74.48
29359;BME280;16347;53.232;6.556;2023-02-11T01:27:52;103119.53;;;8.20;74.92
29359;BME280;16347;53.232;6.556;2023-02-11T01:30:21;103115.59;;;8.10;75.44
29359;BME280;16347;53.232;6.556;2023-02-11T01:32:50;103125.66;;;8.24;75.11
29359;BME280;16347;53.232;6.556;2023-02-11T01:35:19;103116.56;;;8.25;74.91
29359;BME280;16347;53.232;6.556;2023-02-11T01:37:47;103122.88;;;8.25;75.01
29359;BME280;16347;53.232;6.556;2023-02-11T01:40:17;103119.13;;;8.28;75.00
29359;BME280;16347;53.232;6.556;2023-02-11T01:42:45;103121.00;;;8.26;75.35
29359;BME280;16347;53.232;6.556;2023-02-11T01:48:21;103111.59;;;8.02;75.83
29359;BME280;16347;53.232;6.556;2023-02-11T01:50:56;103114.72;;;7.94;76.26
29359;BME280;16347;53.232;6.556;2023-02-11T01:53:27;103107.94;;;8.18;75.90
29359;BME280;16347;53.232;6.556;2023-02-11T01:56:16;103105.09;;;8.20;75.63
29359;BME280;16347;53.232;6.556;2023-02-11T01:59:07;103092.44;;;8.20;75.63
29359;BME280;16347;53.232;6.556;2023-02-11T02:01:39;103088.66;;;8.23;75.38
29359;BME280;16347;53.232;6.556;2023-02-11T02:04:10;103106.94;;;8.19;75.31
29359;BME280;16347;53.232;6.556;2023-02-11T02:06:44;103115.94;;;8.20;75.47
29359;BME280;16347;53.232;6.556;2023-02-11T02:09:19;103106.41;;;8.13;76.14
29359;BME280;16347;53.232;6.556;2023-02-11T02:11:49;103099.63;;;8.21;75.59
29359;BME280;16347;53.232;6.556;2023-02-11T02:14:17;103111.16;;;8.25;75.66
29359;BME280;16347;53.232;6.556;2023-02-11T02:16:46;103101.69;;;8.16;76.00
29359;BME280;16347;53.232;6.556;2023-02-11T02:19:46;103079.69;;;8.22;75.82
29359;BME280;16347;53.232;6.556;2023-02-11T02:22:50;103081.09;;;8.30;75.49
29359;BME280;16347;53.232;6.556;2023-02-11T02:25:35;103081.22;;;8.26;75.55
29359;BME280;16347;53.232;6.556;2023-02-11T02:28:20;103084.13;;;8.23;75.90
29359;BME280;16347;53.232;6.556;2023-02-11T02:33:52;103078.28;;;8.31;75.25
29359;BME280;16347;53.232;6.556;2023-02-11T02:36:27;103054.78;;;8.32;75.58
29359;BME280;16347;53.232;6.556;2023-02-11T02:39:02;103064.00;;;8.43;75.53
29359;BME280;16347;53.232;6.556;2023-02-11T02:41:32;103066.53;;;8.46;75.15
29359;BME280;16347;53.232;6.556;2023-02-11T02:44:01;103071.44;;;8.24;75.79
29359;BME280;16347;53.232;6.556;2023-02-11T02:46:31;103057.38;;;8.17;75.69
29359;BME280;16347;53.232;6.556;2023-02-11T02:49:01;103059.50;;;8.28;75.95
29359;BME280;16347;53.232;6.556;2023-02-11T02:51:51;103051.13;;;8.33;75.90
29359;BME280;16347;53.232;6.556;2023-02-11T02:54:46;103043.84;;;8.17;76.61
29359;BME280;16347;53.232;6.556;2023-02-11T02:57:27;103049.00;;;8.22;76.54
29359;BME280;16347;53.232;6.556;2023-02-11T03:00:07;103047.06;;;8.24;76.61
29359;BME280;16347;53.232;6.556;2023-02-11T03:02:43;103042.53;;;8.24;76.60
29359;BME280;16347;53.232;6.556;2023-02-11T03:05:18;103056.31;;;8.20;77.30
29359;BME280;16347;53.232;6.556;2023-02-11T03:07:54;103052.25;;;8.29;77.25
29359;BME280;16347;53.232;6.556;2023-02-11T03:10:26;103050.31;;;8.15;77.55
29359;BME280;16347;53.232;6.556;2023-02-11T03:12:57;103044.91;;;7.99;78.37
29359;BME280;16347;53.232;6.556;2023-02-11T03:15:28;103042.53;;;7.93;78.68
29359;BME280;16347;53.232;6.556;2023-02-11T03:17:59;103032.16;;;8.01;78.70
29359;BME280;16347;53.232;6.556;2023-02-11T03:20:32;103043.06;;;8.15;78.44
29359;BME280;16347;53.232;6.556;2023-02-11T03:23:05;103046.00;;;8.26;77.67
29359;BME280;16347;53.232;6.556;2023-02-11T03:25:40;103047.00;;;8.25;77.94
29359;BME280;16347;53.232;6.556;2023-02-11T03:28:13;103039.38;;;8.16;77.96
29359;BME280;16347;53.232;6.556;2023-02-11T03:30:46;103042.41;;;8.26;78.24
29359;BME280;16347;53.232;6.556;2023-02-11T03:33:17;103030.97;;;8.21;78.55
29359;BME280;16347;53.232;6.556;2023-02-11T03:35:53;103022.72;;;7.93;79.09
29359;BME280;16347;53.232;6.556;2023-02-11T03:38:26;103034.06;;;8.15;78.98
29359;BME280;16347;53.232;6.556;2023-02-11T03:40:56;103038.44;;;8.02;79.69
29359;BME280;16347;53.232;6.556;2023-02-11T03:43:30;103039.69;;;8.26;79.56
29359;BME280;16347;53.232;6.556;2023-02-11T03:46:00;103038.59;;;8.30;78.86
29359;BME280;16347;53.232;6.556;2023-02-11T03:48:32;103036.00;;;8.29;78.92
29359;BME280;16347;53.232;6.556;2023-02-11T03:51:06;103040.00;;;8.21;79.42
29359;BME280;16347;53.232;6.556;2023-02-11T03:53:35;103027.00;;;8.28;79.54
29359;BME280;16347;53.232;6.556;2023-02-11T03:56:08;103026.53;;;8.36;78.81
29359;BME280;16347;53.232;6.556;2023-02-11T03:58:37;103034.75;;;8.34;78.67
29359;BME280;16347;53.232;6.556;2023-02-11T04:01:05;103027.50;;;8.35;78.78
29359;BME280;16347;53.232;6.556;2023-02-11T04:03:35;103035.06;;;8.44;79.17
29359;BME280;16347;53.232;6.556;2023-02-11T04:06:05;103038.59;;;8.60;78.12
29359;BME280;16347;53.232;6.556;2023-02-11T04:08:33;103039.22;;;8.65;78.01
29359;BME280;16347;53.232;6.556;2023-02-11T04:11:02;103046.53;;;8.63;77.80
29359;BME280;16347;53.232;6.556;2023-02-11T04:13:30;103039.09;;;8.66;78.00
29359;BME280;16347;53.232;6.556;2023-02-11T04:15:58;103039.97;;;8.67;78.07
29359;BME280;16347;53.232;6.556;2023-02-11T04:18:26;103035.69;;;8.63;78.47
29359;BME280;16347;53.232;6.556;2023-02-11T04:20:54;103030.69;;;8.71;78.34
29359;BME280;16347;53.232;6.556;2023-02-11T04:23:23;103027.94;;;8.57;78.95
29359;BME280;16347;53.232;6.556;2023-02-11T04:25:51;103026.91;;;8.59;78.69
29359;BME280;16347;53.232;6.556;2023-02-11T04:28:20;103029.44;;;8.62;78.96
29359;BME280;16347;53.232;6.556;2023-02-11T04:30:48;103038.63;;;8.74;78.28
29359;BME280;16347;53.232;6.556;2023-02-11T04:33:16;103033.09;;;8.61;78.94
29359;BME280;16347;53.232;6.556;2023-02-11T04:35:44;103037.94;;;8.70;79.30
29359;BME280;16347;53.232;6.556;2023-02-11T04:38:13;103036.06;;;8.57;79.38
29359;BME280;16347;53.232;6.556;2023-02-11T04:40:42;103043.94;;;8.61;79.48
29359;BME280;16347;53.232;6.556;2023-02-11T04:43:10;103050.44;;;8.73;79.34
29359;BME280;16347;53.232;6.556;2023-02-11T04:45:39;103051.81;;;8.80;79.12
29359;BME280;16347;53.232;6.556;2023-02-11T04:48:07;103047.06;;;8.69;79.21
29359;BME280;16347;53.232;6.556;2023-02-11T04:50:35;103049.00;;;8.67;79.11
29359;BME280;16347;53.232;6.556;2023-02-11T04:53:03;103032.25;;;8.75;79.68
29359;BME280;16347;53.232;6.556;2023-02-11T04:55:31;103045.44;;;8.81;79.21
29359;BME280;16347;53.232;6.556;2023-02-11T04:58:00;103036.22;;;8.69;79.77
29359;BME280;16347;53.232;6.556;2023-02-11T05:00:29;103037.03;;;8.86;79.05
29359;BME280;16347;53.232;6.556;2023-02-11T05:02:58;103034.13;;;8.89;78.86
29359;BME280;16347;53.232;6.556;2023-02-11T05:05:26;103047.50;;;8.92;78.81
29359;BME280;16347;53.232;6.556;2023-02-11T05:07:54;103037.22;;;8.97;78.67
29359;BME280;16347;53.232;6.556;2023-02-11T05:10:22;103046.84;;;9.02;78.62
29359;BME280;16347;53.232;6.556;2023-02-11T05:12:50;103048.44;;;8.91;78.79
29359;BME280;16347;53.232;6.556;2023-02-11T05:15:23;103059.34;;;9.05;78.25
29359;BME280;16347;53.232;6.556;2023-02-11T05:17:51;103050.91;;;9.09;78.45
29359;BME280;16347;53.232;6.556;2023-02-11T05:20:20;103044.31;;;8.99;78.00
29359;BME280;16347;53.232;6.556;2023-02-11T05:22:49;103050.25;;;9.06;77.94
29359;BME280;16347;53.232;6.556;2023-02-11T05:25:18;103046.25;;;8.97;78.37
29359;BME280;16347;53.232;6.556;2023-02-11T05:27:48;103037.50;;;8.78;78.75
29359;BME280;16347;53.232;6.556;2023-02-11T05:30:16;103043.88;;;8.77;79.25
29359;BME280;16347;53.232;6.556;2023-02-11T05:32:46;103032.66;;;8.97;78.80
29359;BME280;16347;53.232;6.556;2023-02-11T05:35:15;103039.25;;;8.93;78.57
29359;BME280;16347;53.232;6.556;2023-02-11T05:37:43;103032.19;;;8.91;78.36
29359;BME280;16347;53.232;6.556;2023-02-11T05:40:12;103031.78;;;8.97;78.34
29359;BME280;16347;53.232;6.556;2023-02-11T05:42:41;103042.19;;;9.04;78.23
29359;BME280;16347;53.232;6.556;2023-02-11T05:45:09;103051.19;;;9.05;77.71
29359;BME280;16347;53.232;6.556;2023-02-11T05:47:37;103050.69;;;8.98;77.63
29359;BME280;16347;53.232;6.556;2023-02-11T05:50:07;103043.94;;;9.19;77.41
29359;BME280;16347;53.232;6.556;2023-02-11T05:52:35;103048.69;;;9.02;77.70
29359;BME280;16347;53.232;6.556;2023-02-11T05:55:04;103046.66;;;9.05;77.45
29359;BME280;16347;53.232;6.556;2023-02-11T05:57:32;103041.59;;;9.13;77.00
29359;BME280;16347;53.232;6.556;2023-02-11T06:00:00;103051.03;;;9.22;77.21
29359;BME280;16347;53.232;6.556;2023-02-11T06:02:38;103040.44;;;9.32;76.90
29359;BME280;16347;53.232;6.556;2023-02-11T06:05:08;103049.38;;;9.19;76.46
29359;BME280;16347;53.232;6.556;2023-02-11T06:07:36;103054.28;;;8.99;77.28
29359;BME280;16347;53.232;6.556;2023-02-11T06:10:05;103058.00;;;9.12;77.42
29359;BME280;16347;53.232;6.556;2023-02-11T06:12:35;103044.22;;;9.15;77.00
29359;BME280;16347;53.232;6.556;2023-02-11T06:15:04;103051.03;;;9.22;76.88
29359;BME280;16347;53.232;6.556;2023-02-11T06:17:33;103049.66;;;9.29;76.59
29359;BME280;16347;53.232;6.556;2023-02-11T06:20:03;103043.25;;;9.30;76.35
29359;BME280;16347;53.232;6.556;2023-02-11T06:22:33;103046.16;;;9.27;75.94
29359;BME280;16347;53.232;6.556;2023-02-11T06:25:01;103041.81;;;9.24;76.47
29359;BME280;16347;53.232;6.556;2023-02-11T06:27:29;103041.13;;;9.21;76.62
29359;BME280;16347;53.232;6.556;2023-02-11T06:29:58;103040.44;;;9.17;76.25
29359;BME280;16347;53.232;6.556;2023-02-11T06:32:27;103037.44;;;9.22;76.70
29359;BME280;16347;53.232;6.556;2023-02-11T06:35:12;103041.81;;;9.24;76.32
29359;BME280;16347;53.232;6.556;2023-02-11T06:37:43;103045.47;;;9.23;76.58
29359;BME280;16347;53.232;6.556;2023-02-11T06:40:11;103052.94;;;9.20;76.10
29359;BME280;16347;53.232;6.556;2023-02-11T06:42:40;103049.84;;;9.12;76.88
29359;BME280;16347;53.232;6.556;2023-02-11T06:45:08;103053.94;;;9.19;76.39
29359;BME280;16347;53.232;6.556;2023-02-11T06:47:39;103056.72;;;9.17;76.64
29359;BME280;16347;53.232;6.556;2023-02-11T06:50:10;103051.50;;;9.14;76.51
29359;BME280;16347;53.232;6.556;2023-02-11T06:52:40;103058.47;;;9.18;76.75
29359;BME280;16347;53.232;6.556;2023-02-11T06:55:10;103061.38;;;9.15;76.61
29359;BME280;16347;53.232;6.556;2023-02-11T06:57:40;103057.59;;;9.18;76.14
29359;BME280;16347;53.232;6.556;2023-02-11T07:00:09;103058.19;;;9.09;77.03
29359;BME280;16347;53.232;6.556;2023-02-11T07:02:38;103059.34;;;9.19;76.50
29359;BME280;16347;53.232;6.556;2023-02-11T07:05:07;103054.81;;;9.19;76.00
29359;BME280;16347;53.232;6.556;2023-02-11T07:07:36;103053.50;;;8.97;77.18
29359;BME280;16347;53.232;6.556;2023-02-11T07:10:05;103070.09;;;9.06;77.09
29359;BME280;16347;53.232;6.556;2023-02-11T07:12:35;103070.59;;;9.13;76.88
29359;BME280;16347;53.232;6.556;2023-02-11T07:15:04;103074.50;;;9.23;76.23
29359;BME280;16347;53.232;6.556;2023-02-11T07:17:33;103076.59;;;9.18;76.28
29359;BME280;16347;53.232;6.556;2023-02-11T07:20:02;103069.53;;;9.15;76.68
29359;BME280;16347;53.232;6.556;2023-02-11T07:22:32;103077.97;;;9.39;75.83
29359;BME280;16347;53.232;6.556;2023-02-11T07:25:01;103077.09;;;9.24;76.14
29359;BME280;16347;53.232;6.556;2023-02-11T07:27:30;103080.22;;;9.33;76.11
29359;BME280;16347;53.232;6.556;2023-02-11T07:30:01;103079.81;;;9.39;75.96
29359;BME280;16347;53.232;6.556;2023-02-11T07:32:33;103081.94;;;9.48;75.58
29359;BME280;16347;53.232;6.556;2023-02-11T07:35:01;103067.78;;;9.28;76.27
29359;BME280;16347;53.232;6.556;2023-02-11T07:37:29;103064.88;;;9.32;76.23
29359;BME280;16347;53.232;6.556;2023-02-11T07:39:57;103075.47;;;9.36;75.96
29359;BME280;16347;53.232;6.556;2023-02-11T07:42:27;103065.84;;;9.31;75.79
29359;BME280;16347;53.232;6.556;2023-02-11T07:44:55;103065.19;;;9.13;76.29
29359;BME280;16347;53.232;6.556;2023-02-11T07:47:25;103058.09;;;9.24;76.55
29359;BME280;16347;53.232;6.556;2023-02-11T07:49:53;103066.03;;;9.27;76.69
29359;BME280;16347;53.232;6.556;2023-02-11T07:52:22;103073.13;;;9.16;76.74
29359;BME280;16347;53.232;6.556;2023-02-11T07:54:51;103072.13;;;9.17;76.94
29359;BME280;16347;53.232;6.556;2023-02-11T07:57:19;103075.16;;;9.26;76.59
29359;BME280;16347;53.232;6.556;2023-02-11T07:59:47;103087.84;;;9.40;76.26
29359;BME280;16347;53.232;6.556;2023-02-11T08:02:15;103090.09;;;9.19;76.52
29359;BME280;16347;53.232;6.556;2023-02-11T08:04:46;103087.19;;;9.22;77.10
29359;BME280;16347;53.232;6.556;2023-02-11T08:07:15;103095.97;;;9.12;77.51
29359;BME280;16347;53.232;6.556;2023-02-11T08:09:43;103099.59;;;9.26;77.21
29359;BME280;16347;53.232;6.556;2023-02-11T08:12:11;103096.97;;;9.25;77.12
29359;BME280;16347;53.232;6.556;2023-02-11T08:14:40;103099.50;;;9.42;76.74
29359;BME280;16347;53.232;6.556;2023-02-11T08:17:08;103099.03;;;9.36;76.04
29359;BME280;16347;53.232;6.556;2023-02-11T08:19:37;103096.69;;;9.44;75.72
29359;BME280;16347;53.232;6.556;2023-02-11T08:22:07;103102.41;;;9.39;75.79
29359;BME280;16347;53.232;6.556;2023-02-11T08:24:35;103108.13;;;9.49;76.12
29359;BME280;16347;53.232;6.556;2023-02-11T08:27:03;103118.81;;;9.52;75.63
29359;BME280;16347;53.232;6.556;2023-02-11T08:29:31;103125.78;;;9.56;75.90
29359;BME280;16347;53.232;6.556;2023-02-11T08:31:59;103125.75;;;9.84;74.63
29359;BME280;16347;53.232;6.556;2023-02-11T08:34:28;103132.00;;;9.72;74.60
29359;BME280;16347;53.232;6.556;2023-02-11T08:36:56;103137.72;;;9.67;74.29
29359;BME280;16347;53.232;6.556;2023-02-11T08:39:26;103134.81;;;9.42;75.62
29359;BME280;16347;53.232;6.556;2023-02-11T08:41:54;103147.13;;;9.48;75.61
29359;BME280;16347;53.232;6.556;2023-02-11T08:44:23;103137.25;;;9.47;75.80
29359;BME280;16347;53.232;6.556;2023-02-11T08:46:52;103129.25;;;9.44;75.81
29359;BME280;16347;53.232;6.556;2023-02-11T08:49:20;103141.59;;;9.49;75.74
29359;BME280;16347;53.232;6.556;2023-02-11T08:51:49;103146.66;;;9.55;75.48
29359;BME280;16347;53.232;6.556;2023-02-11T08:54:17;103157.22;;;9.60;75.19
29359;BME280;16347;53.232;6.556;2023-02-11T08:56:50;103155.09;;;9.65;75.51
29359;BME280;16347;53.232;6.556;2023-02-11T08:59:18;103159.75;;;9.63;75.16
29359;BME280;16347;53.232;6.556;2023-02-11T09:01:47;103161.78;;;9.73;75.12
29359;BME280;16347;53.232;6.556;2023-02-11T09:04:16;103168.75;;;9.77;74.60
29359;BME280;16347;53.232;6.556;2023-02-11T09:06:45;103175.06;;;9.78;74.21
29359;BME280;16347;53.232;6.556;2023-02-11T09:09:15;103162.75;;;9.72;74.26
29359;BME280;16347;53.232;6.556;2023-02-11T09:11:44;103168.19;;;9.87;74.07
29359;BME280;16347;53.232;6.556;2023-02-11T09:14:18;103178.06;;;9.88;74.33
29359;BME280;16347;53.232;6.556;2023-02-11T09:16:47;103191.28;;;9.94;74.19
29359;BME280;16347;53.232;6.556;2023-02-11T09:19:16;103191.38;;;9.78;74.19
29359;BME280;16347;53.232;6.556;2023-02-11T09:21:45;103197.59;;;9.80;74.04
29359;BME280;16347;53.232;6.556;2023-02-11T09:24:14;103199.13;;;9.84;74.31
29359;BME280;16347;53.232;6.556;2023-02-11T09:26:43;103196.13;;;9.89;74.27
29359;BME280;16347;53.232;6.556;2023-02-11T09:29:12;103198.56;;;9.79;73.88
29359;BME280;16347;53.232;6.556;2023-02-11T09:31:41;103206.31;;;9.71;74.47
29359;BME280;16347;53.232;6.556;2023-02-11T09:34:11;103205.84;;;9.78;74.65
29359;BME280;16347;53.232;6.556;2023-02-11T09:36:41;103205.94;;;9.91;74.48
29359;BME280;16347;53.232;6.556;2023-02-11T09:39:14;103210.69;;;9.88;74.22
29359;BME280;16347;53.232;6.556;2023-02-11T09:42:09;103214.56;;;9.98;74.56
29359;BME280;16347;53.232;6.556;2023-02-11T09:44:43;103216.59;;;9.94;74.40
29359;BME280;16347;53.232;6.556;2023-02-11T09:47:30;103220.38;;;9.92;74.85
29359;BME280;16347;53.232;6.556;2023-02-11T09:50:06;103224.25;;;9.88;74.51
29359;BME280;16347;53.232;6.556;2023-02-11T09:52:45;103216.91;;;9.90;74.71
29359;BME280;16347;53.232;6.556;2023-02-11T09:55:22;103219.72;;;10.02;74.62
29359;BME280;16347;53.232;6.556;2023-02-11T09:57:54;103226.91;;;10.03;74.44
29359;BME280;16347;53.232;6.556;2023-02-11T10:00:33;103231.34;;;10.04;74.29
29359;BME280;16347;53.232;6.556;2023-02-11T10:03:39;103234.38;;;10.28;73.88
29359;BME280;16347;53.232;6.556;2023-02-11T10:06:21;103249.72;;;10.29;72.91
29359;BME280;16347;53.232;6.556;2023-02-11T10:09:01;103250.34;;;10.34;73.78
29359;BME280;16347;53.232;6.556;2023-02-11T10:11:40;103251.78;;;10.25;73.37
29359;BME280;16347;53.232;6.556;2023-02-11T10:14:28;103253.59;;;10.39;73.90
29359;BME280;16347;53.232;6.556;2023-02-11T10:17:09;103264.88;;;10.47;73.38
29359;BME280;16347;53.232;6.556;2023-02-11T10:20:00;103259.31;;;10.49;72.73
29359;BME280;16347;53.232;6.556;2023-02-11T10:22:35;103259.25;;;10.50;72.21
29359;BME280;16347;53.232;6.556;2023-02-11T10:25:17;103264.09;;;10.31;72.87
29359;BME280;16347;53.232;6.556;2023-02-11T10:27:49;103263.81;;;10.36;72.71
29359;BME280;16347;53.232;6.556;2023-02-11T10:30:25;103283.72;;;10.36;72.74
29359;BME280;16347;53.232;6.556;2023-02-11T10:32:59;103275.84;;;10.46;72.78
29359;BME280;16347;53.232;6.556;2023-02-11T10:35:32;103272.38;;;10.29;72.65
29359;BME280;16347;53.232;6.556;2023-02-11T10:38:03;103273.13;;;10.46;72.33
29359;BME280;16347;53.232;6.556;2023-02-11T10:40:33;103286.81;;;10.58;71.96
29359;BME280;16347;53.232;6.556;2023-02-11T10:43:04;103285.25;;;10.54;71.81
29359;BME280;16347;53.232;6.556;2023-02-11T10:45:37;103277.69;;;10.45;72.03
29359;BME280;16347;53.232;6.556;2023-02-11T10:48:38;103271.41;;;10.71;72.29
29359;BME280;16347;53.232;6.556;2023-02-11T10:51:17;103276.31;;;10.66;71.26
29359;BME280;16347;53.232;6.556;2023-02-11T10:53:48;103280.25;;;10.75;71.18
29359;BME280;16347;53.232;6.556;2023-02-11T10:56:23;103286.09;;;10.69;71.46
29359;BME280;16347;53.232;6.556;2023-02-11T10:58:56;103289.72;;;10.69;70.96
29359;BME280;16347;53.232;6.556;2023-02-11T11:01:42;103292.19;;;10.87;71.01
29359;BME280;16347;53.232;6.556;2023-02-11T11:04:36;103298.25;;;10.77;70.69
29359;BME280;16347;53.232;6.556;2023-02-11T11:07:19;103307.19;;;10.79;70.99
29359;BME280;16347;53.232;6.556;2023-02-11T11:09:52;103300.09;;;10.77;71.20
29359;BME280;16347;53.232;6.556;2023-02-11T11:12:37;103301.25;;;10.73;71.20
29359;BME280;16347;53.232;6.556;2023-02-11T11:15:20;103308.56;;;10.72;71.42
29359;BME280;16347;53.232;6.556;2023-02-11T11:18:01;103300.50;;;10.71;70.62
29359;BME280;16347;53.232;6.556;2023-02-11T11:20:56;103302.69;;;10.78;71.22
29359;BME280;16347;53.232;6.556;2023-02-11T11:23:29;103312.56;;;10.67;71.11
29359;BME280;16347;53.232;6.556;2023-02-11T11:26:02;103310.97;;;10.77;71.42
29359;BME280;16347;53.232;6.556;2023-02-11T11:28:36;103313.78;;;10.75;70.99
29359;BME280;16347;53.232;6.556;2023-02-11T11:31:13;103316.50;;;10.75;71.48
29359;BME280;16347;53.232;6.556;2023-02-11T11:33:45;103307.09;;;10.81;70.91
29359;BME280;16347;53.232;6.556;2023-02-11T11:36:19;103314.22;;;10.96;71.06
29359;BME280;16347;53.232;6.556;2023-02-11T11:38:51;103299.03;;;11.06;70.42
29359;BME280;16347;53.232;6.556;2023-02-11T11:41:25;103310.34;;;11.00;70.61
29359;BME280;16347;53.232;6.556;2023-02-11T11:43:55;103311.69;;;11.07;70.17
29359;BME280;16347;53.232;6.556;2023-02-11T11:46:26;103313.97;;;10.87;70.74
29359;BME280;16347;53.232;6.556;2023-02-11T11:51:52;103308.16;;;10.78;71.39
29359;BME280;16347;53.232;6.556;2023-02-11T11:54:26;103314.25;;;10.82;71.48
29359;BME280;16347;53.232;6.556;2023-02-11T11:56:59;103308.25;;;10.91;71.59
29359;BME280;16347;53.232;6.556;2023-02-11T11:59:31;103302.22;;;10.86;71.16
29359;BME280;16347;53.232;6.556;2023-02-11T12:05:05;103307.97;;;11.08;70.48
29359;BME280;16347;53.232;6.556;2023-02-11T12:07:49;103321.38;;;11.11;70.46
29359;BME280;16347;53.232;6.556;2023-02-11T12:13:29;103299.94;;;10.93;70.35
29359;BME280;16347;53.232;6.556;2023-02-11T12:16:10;103302.31;;;11.11;70.15
29359;BME280;16347;53.232;6.556;2023-02-11T12:19:04;103306.78;;;11.12;69.70
29359;BME280;16347;53.232;6.556;2023-02-11T12:21:44;103307.88;;;11.10;69.50
29359;BME280;16347;53.232;6.556;2023-02-11T12:24:29;103305.91;;;11.12;69.94
29359;BME280;16347;53.232;6.556;2023-02-11T12:27:07;103290.25;;;11.15;69.42
29359;BME280;16347;53.232;6.556;2023-02-11T12:29:54;103297.66;;;11.13;69.64
29359;BME280;16347;53.232;6.556;2023-02-11T12:32:32;103293.84;;;11.16;70.08
29359;BME280;16347;53.232;6.556;2023-02-11T12:35:16;103305.56;;;11.30;69.71
29359;BME280;16347;53.232;6.556;2023-02-11T12:38:03;103300.56;;;11.37;69.67
29359;BME280;16347;53.232;6.556;2023-02-11T12:40:42;103294.25;;;11.37;69.47
29359;BME280;16347;53.232;6.556;2023-02-11T12:43:19;103313.75;;;11.30;69.70
29359;BME280;16347;53.232;6.556;2023-02-11T12:51:47;103307.47;;;11.16;70.31
29359;BME280;16347;53.232;6.556;2023-02-11T12:54:23;103302.47;;;11.22;69.96
29359;BME280;16347;53.232;6.556;2023-02-11T12:56:59;103309.63;;;11.38;69.40
29359;BME280;16347;53.232;6.556;2023-02-11T12:59:39;103314.41;;;11.34;69.41
29359;BME280;16347;53.232;6.556;2023-02-11T13:02:22;103307.38;;;11.17;69.90
29359;BME280;16347;53.232;6.556;2023-02-11T13:04:55;103315.47;;;11.05;69.68
29359;BME280;16347;53.232;6.556;2023-02-11T13:07:28;103320.63;;;11.09;69.90
29359;BME280;16347;53.232;6.556;2023-02-11T13:10:04;103329.00;;;11.06;70.42
29359;BME280;16347;53.232;6.556;2023-02-11T13:12:35;103322.56;;;11.07;69.75
29359;BME280;16347;53.232;6.556;2023-02-11T13:15:24;103326.78;;;11.25;69.31
29359;BME280;16347;53.232;6.556;2023-02-11T13:17:57;103324.25;;;11.22;69.51
29359;BME280;16347;53.232;6.556;2023-02-11T13:20:38;103339.13;;;11.31;69.16
29359;BME280;16347;53.232;6.556;2023-02-11T13:23:13;103339.84;;;11.20;69.11
29359;BME280;16347;53.232;6.556;2023-02-11T13:25:50;103333.09;;;11.26;69.04
29359;BME280;16347;53.232;6.556;2023-02-11T13:28:31;103335.06;;;11.24;69.06
29359;BME280;16347;53.232;6.556;2023-02-11T13:31:08;103329.19;;;11.30;68.99
29359;BME280;16347;53.232;6.556;2023-02-11T13:33:40;103322.91;;;11.15;69.27
29359;BME280;16347;53.232;6.556;2023-02-11T13:36:20;103322.22;;;11.26;68.97
29359;BME280;16347;53.232;6.556;2023-02-11T13:39:03;103322.16;;;11.13;69.53
29359;BME280;16347;53.232;6.556;2023-02-11T13:41:42;103316.97;;;10.96;69.35
29359;BME280;16347;53.232;6.556;2023-02-11T13:44:24;103343.78;;;11.02;69.91
29359;BME280;16347;53.232;6.556;2023-02-11T13:47:01;103334.94;;;10.99;69.95